sensor_id;sensor_type;location;lat;lon;timestamp;pressure;altitude;pressure_sealevel;temperature;humidity
64294;BME280;50636;45.596;5.258;2022-10-04T00:01:59;99246.50;;;19.10;60.45
64294;BME280;50636;45.596;5.258;2022-10-04T00:04:34;99245.66;;;18.93;60.80
64294;BME280;50636;45.596;5.258;2022-10-04T00:07:15;99237.84;;;18.86;62.09
64294;BME280;50636;45.596;5.258;2022-10-04T00:12:40;99238.84;;;18.51;61.83
64294;BME280;50636;45.596;5.258;2022-10-04T00:25:55;99237.41;;;18.03;63.50
64294;BME280;50636;45.596;5.258;2022-10-04T00:31:19;99243.09;;;18.24;64.21
64294;BME280;50636;45.596;5.258;2022-10-04T00:33:53;99248.03;;;18.32;63.13
64294;BME280;50636;45.596;5.258;2022-10-04T00:41:47;99236.63;;;18.48;63.23
64294;BME280;50636;45.596;5.258;2022-10-04T00:44:40;99236.75;;;18.70;62.69
64294;BME280;50636;45.596;5.258;2022-10-04T00:47:52;99244.34;;;18.62;62.05
64294;BME280;50636;45.596;5.258;2022-10-04T00:50:28;99245.84;;;18.29;62.43
64294;BME280;50636;45.596;5.258;2022-10-04T00:52:59;99239.09;;;18.09;63.08
64294;BME280;50636;45.596;5.258;2022-10-04T00:55:48;99240.50;;;18.00;64.08
64294;BME280;50636;45.596;5.258;2022-10-04T00:58:34;99236.06;;;18.17;64.65
64294;BME280;50636;45.596;5.258;2022-10-04T01:01:03;99222.22;;;18.44;63.72
64294;BME280;50636;45.596;5.258;2022-10-04T01:03:33;99232.69;;;18.51;63.95
64294;BME280;50636;45.596;5.258;2022-10-04T01:06:04;99225.16;;;18.60;63.33
64294;BME280;50636;45.596;5.258;2022-10-04T01:08:54;99224.47;;;18.52;63.10
64294;BME280;50636;45.596;5.258;2022-10-04T01:11:30;99222.59;;;18.36;63.40
64294;BME280;50636;45.596;5.258;2022-10-04T01:14:10;99214.63;;;18.36;63.95
64294;BME280;50636;45.596;5.258;2022-10-04T01:16:38;99219.00;;;18.59;62.90
64294;BME280;50636;45.596;5.258;2022-10-04T01:24:54;99198.41;;;18.49;62.66
64294;BME280;50636;45.596;5.258;2022-10-04T01:30:04;99200.28;;;18.37;63.02
64294;BME280;50636;45.596;5.258;2022-10-04T01:32:32;99203.66;;;18.32;62.52
64294;BME280;50636;45.596;5.258;2022-10-04T01:34:57;99207.50;;;18.25;63.44
64294;BME280;50636;45.596;5.258;2022-10-04T01:37:24;99195.34;;;18.29;63.19
64294;BME280;50636;45.596;5.258;2022-10-04T01:39:50;99191.91;;;18.28;63.04
64294;BME280;50636;45.596;5.258;2022-10-04T01:42:20;99196.84;;;18.08;63.56
64294;BME280;50636;45.596;5.258;2022-10-04T01:45:00;99187.13;;;18.13;64.10
64294;BME280;50636;45.596;5.258;2022-10-04T01:47:44;99192.22;;;18.32;63.77
64294;BME280;50636;45.596;5.258;2022-10-04T01:50:23;99187.66;;;18.44;62.73
64294;BME280;50636;45.596;5.258;2022-10-04T01:52:57;99188.91;;;18.53;63.50
64294;BME280;50636;45.596;5.258;2022-10-04T01:55:31;99184.91;;;18.85;62.52
64294;BME280;50636;45.596;5.258;2022-10-04T01:58:16;99178.94;;;18.77;61.67
64294;BME280;50636;45.596;5.258;2022-10-04T02:00:51;99182.56;;;18.88;63.06
64294;BME280;50636;45.596;5.258;2022-10-04T02:03:27;99182.47;;;19.17;61.91
64294;BME280;50636;45.596;5.258;2022-10-04T02:05:56;99179.94;;;19.27;61.75
64294;BME280;50636;45.596;5.258;2022-10-04T02:08:29;99175.50;;;19.33;61.28
64294;BME280;50636;45.596;5.258;2022-10-04T02:10:58;99176.81;;;19.13;60.75
64294;BME280;50636;45.596;5.258;2022-10-04T02:13:27;99172.50;;;18.90;61.49
64294;BME280;50636;45.596;5.258;2022-10-04T02:15:58;99170.84;;;18.72;61.94
64294;BME280;50636;45.596;5.258;2022-10-04T02:18:25;99167.06;;;18.68;62.20
64294;BME280;50636;45.596;5.258;2022-10-04T02:20:51;99167.03;;;18.80;62.32
64294;BME280;50636;45.596;5.258;2022-10-04T02:23:21;99158.63;;;18.88;61.51
64294;BME280;50636;45.596;5.258;2022-10-04T02:25:47;99160.53;;;18.76;61.70
64294;BME280;50636;45.596;5.258;2022-10-04T02:28:14;99153.88;;;18.73;61.83
64294;BME280;50636;45.596;5.258;2022-10-04T02:30:49;99154.34;;;18.53;61.03
64294;BME280;50636;45.596;5.258;2022-10-04T02:33:40;99150.75;;;18.31;62.33
64294;BME280;50636;45.596;5.258;2022-10-04T02:36:08;99152.09;;;18.16;62.61
64294;BME280;50636;45.596;5.258;2022-10-04T02:38:38;99150.63;;;18.09;62.86
64294;BME280;50636;45.596;5.258;2022-10-04T02:41:24;99148.88;;;18.14;63.19
64294;BME280;50636;45.596;5.258;2022-10-04T02:43:54;99148.47;;;18.23;62.84
64294;BME280;50636;45.596;5.258;2022-10-04T02:46:32;99149.06;;;18.25;62.93
64294;BME280;50636;45.596;5.258;2022-10-04T02:49:32;99149.56;;;18.39;63.22
64294;BME280;50636;45.596;5.258;2022-10-04T02:57:20;99148.84;;;18.43;63.03
64294;BME280;50636;45.596;5.258;2022-10-04T02:59:47;99141.34;;;18.57;62.38
64294;BME280;50636;45.596;5.258;2022-10-04T03:02:23;99140.22;;;18.53;62.03
64294;BME280;50636;45.596;5.258;2022-10-04T03:04:50;99140.22;;;18.53;62.37
64294;BME280;50636;45.596;5.258;2022-10-04T03:07:17;99141.06;;;18.53;62.20
64294;BME280;50636;45.596;5.258;2022-10-04T03:09:44;99134.75;;;18.43;61.97
64294;BME280;50636;45.596;5.258;2022-10-04T03:12:11;99139.72;;;18.22;62.42
64294;BME280;50636;45.596;5.258;2022-10-04T03:14:38;99143.88;;;18.01;62.49
64294;BME280;50636;45.596;5.258;2022-10-04T03:17:05;99136.97;;;17.88;63.46
64294;BME280;50636;45.596;5.258;2022-10-04T03:19:32;99137.09;;;17.82;63.38
64294;BME280;50636;45.596;5.258;2022-10-04T03:22:03;99139.88;;;17.87;64.04
64294;BME280;50636;45.596;5.258;2022-10-04T03:24:41;99133.81;;;18.03;63.93
64294;BME280;50636;45.596;5.258;2022-10-04T03:27:19;99133.75;;;18.15;63.38
64294;BME280;50636;45.596;5.258;2022-10-04T03:29:46;99137.84;;;18.23;63.09
64294;BME280;50636;45.596;5.258;2022-10-04T03:32:15;99144.13;;;18.16;62.64
64294;BME280;50636;45.596;5.258;2022-10-04T03:34:56;99137.41;;;17.97;62.94
64294;BME280;50636;45.596;5.258;2022-10-04T03:37:23;99139.88;;;17.87;63.36
64294;BME280;50636;45.596;5.258;2022-10-04T03:39:54;99149.78;;;17.91;64.11
64294;BME280;50636;45.596;5.258;2022-10-04T03:42:28;99153.28;;;18.09;63.86
64294;BME280;50636;45.596;5.258;2022-10-04T03:45:00;99151.13;;;18.23;63.93
64294;BME280;50636;45.596;5.258;2022-10-04T03:47:33;99150.06;;;18.35;63.61
64294;BME280;50636;45.596;5.258;2022-10-04T03:50:13;99151.81;;;18.47;63.28
64294;BME280;50636;45.596;5.258;2022-10-04T03:53:06;99146.44;;;18.59;62.50
64294;BME280;50636;45.596;5.258;2022-10-04T03:55:33;99155.94;;;18.54;62.19
64294;BME280;50636;45.596;5.258;2022-10-04T03:58:01;99143.16;;;18.51;62.37
64294;BME280;50636;45.596;5.258;2022-10-04T04:00:27;99149.44;;;18.45;62.12
64294;BME280;50636;45.596;5.258;2022-10-04T04:02:59;99148.03;;;18.43;62.42
64294;BME280;50636;45.596;5.258;2022-10-04T04:05:31;99154.63;;;18.40;62.31
64294;BME280;50636;45.596;5.258;2022-10-04T04:08:17;99154.19;;;18.43;62.31
64294;BME280;50636;45.596;5.258;2022-10-04T04:10:52;99155.09;;;18.37;62.28
64294;BME280;50636;45.596;5.258;2022-10-04T04:13:26;99157.03;;;18.25;62.49
64294;BME280;50636;45.596;5.258;2022-10-04T04:15:59;99156.28;;;18.12;62.75
64294;BME280;50636;45.596;5.258;2022-10-04T04:18:31;99160.88;;;17.76;62.47
64294;BME280;50636;45.596;5.258;2022-10-04T04:21:00;99156.47;;;17.30;64.17
64294;BME280;50636;45.596;5.258;2022-10-04T04:23:33;99159.03;;;17.13;64.69
64294;BME280;50636;45.596;5.258;2022-10-04T04:28:48;99153.41;;;16.55;66.47
64294;BME280;50636;45.596;5.258;2022-10-04T04:31:26;99152.16;;;16.58;66.66
64294;BME280;50636;45.596;5.258;2022-10-04T04:34:03;99154.78;;;16.46;66.76
64294;BME280;50636;45.596;5.258;2022-10-04T04:36:38;99152.59;;;16.43;66.99
64294;BME280;50636;45.596;5.258;2022-10-04T04:44:37;99154.00;;;16.69;67.13
64294;BME280;50636;45.596;5.258;2022-10-04T04:47:08;99149.88;;;16.73;66.91
64294;BME280;50636;45.596;5.258;2022-10-04T04:49:41;99149.16;;;16.78;66.85
64294;BME280;50636;45.596;5.258;2022-10-04T04:52:14;99147.97;;;16.92;66.61
64294;BME280;50636;45.596;5.258;2022-10-04T04:54:42;99148.19;;;17.03;66.27
64294;BME280;50636;45.596;5.258;2022-10-04T04:57:17;99150.94;;;16.96;66.12
64294;BME280;50636;45.596;5.258;2022-10-04T04:59:45;99146.22;;;16.98;65.92
64294;BME280;50636;45.596;5.258;2022-10-04T05:07:47;99146.59;;;16.48;65.91
64294;BME280;50636;45.596;5.258;2022-10-04T05:12:57;99154.88;;;16.40;66.69
64294;BME280;50636;45.596;5.258;2022-10-04T05:15:25;99143.38;;;16.46;66.59
64294;BME280;50636;45.596;5.258;2022-10-04T05:17:51;99152.25;;;16.51;66.56
64294;BME280;50636;45.596;5.258;2022-10-04T05:20:17;99150.66;;;16.50;66.42
64294;BME280;50636;45.596;5.258;2022-10-04T05:22:46;99145.91;;;16.41;66.76
64294;BME280;50636;45.596;5.258;2022-10-04T05:25:32;99148.75;;;16.27;67.14
64294;BME280;50636;45.596;5.258;2022-10-04T05:27:58;99153.66;;;16.12;67.64
64294;BME280;50636;45.596;5.258;2022-10-04T05:30:45;99147.78;;;15.91;68.46
64294;BME280;50636;45.596;5.258;2022-10-04T05:33:21;99145.34;;;15.78;69.31
64294;BME280;50636;45.596;5.258;2022-10-04T05:36:01;99145.97;;;15.73;69.63
64294;BME280;50636;45.596;5.258;2022-10-04T05:38:45;99147.31;;;15.64;69.91
64294;BME280;50636;45.596;5.258;2022-10-04T05:41:24;99152.72;;;15.51;70.60
64294;BME280;50636;45.596;5.258;2022-10-04T05:43:55;99152.66;;;15.39;70.77
64294;BME280;50636;45.596;5.258;2022-10-04T05:46:29;99152.16;;;15.30;71.32
64294;BME280;50636;45.596;5.258;2022-10-04T05:49:05;99156.25;;;15.26;71.97
64294;BME280;50636;45.596;5.258;2022-10-04T05:51:34;99151.25;;;15.36;71.98
64294;BME280;50636;45.596;5.258;2022-10-04T05:54:12;99156.09;;;15.21;72.51
64294;BME280;50636;45.596;5.258;2022-10-04T05:56:59;99155.00;;;15.47;72.93
64294;BME280;50636;45.596;5.258;2022-10-04T06:19:10;99159.16;;;16.94;68.80
64294;BME280;50636;45.596;5.258;2022-10-04T06:21:44;99162.97;;;17.10;67.18
64294;BME280;50636;45.596;5.258;2022-10-04T06:24:26;99162.47;;;17.13;66.92
64294;BME280;50636;45.596;5.258;2022-10-04T06:27:14;99157.19;;;17.25;67.75
64294;BME280;50636;45.596;5.258;2022-10-04T06:29:49;99159.56;;;17.50;66.86
64294;BME280;50636;45.596;5.258;2022-10-04T06:35:31;99162.81;;;17.41;65.62
64294;BME280;50636;45.596;5.258;2022-10-04T06:41:05;99161.53;;;17.55;65.47
64294;BME280;50636;45.596;5.258;2022-10-04T06:43:40;99164.84;;;17.50;65.78
64294;BME280;50636;45.596;5.258;2022-10-04T06:46:29;99166.25;;;17.53;65.10
64294;BME280;50636;45.596;5.258;2022-10-04T06:52:25;99171.50;;;17.01;66.27
64294;BME280;50636;45.596;5.258;2022-10-04T06:58:13;99175.28;;;17.05;66.43
64294;BME280;50636;45.596;5.258;2022-10-04T07:03:55;99171.00;;;17.27;65.65
64294;BME280;50636;45.596;5.258;2022-10-04T07:06:36;99172.28;;;17.13;65.65
64294;BME280;50636;45.596;5.258;2022-10-04T07:09:04;99180.69;;;16.98;66.43
64294;BME280;50636;45.596;5.258;2022-10-04T07:11:56;99187.38;;;17.24;66.73
64294;BME280;50636;45.596;5.258;2022-10-04T07:14:36;99184.72;;;17.36;65.79
64294;BME280;50636;45.596;5.258;2022-10-04T07:17:10;99180.88;;;17.67;65.55
64294;BME280;50636;45.596;5.258;2022-10-04T07:19:51;99183.16;;;17.87;64.18
64294;BME280;50636;45.596;5.258;2022-10-04T07:22:36;99179.22;;;17.90;64.33
64294;BME280;50636;45.596;5.258;2022-10-04T07:27:49;99187.09;;;18.42;63.31
64294;BME280;50636;45.596;5.258;2022-10-04T07:30:46;99189.78;;;18.59;61.39
64294;BME280;50636;45.596;5.258;2022-10-04T07:33:17;99195.19;;;18.47;61.25
64294;BME280;50636;45.596;5.258;2022-10-04T07:35:57;99197.53;;;18.32;61.28
64294;BME280;50636;45.596;5.258;2022-10-04T07:38:28;99198.50;;;18.26;61.64
64294;BME280;50636;45.596;5.258;2022-10-04T07:41:16;99199.34;;;18.43;61.64
64294;BME280;50636;45.596;5.258;2022-10-04T07:43:47;99195.19;;;18.64;61.03
64294;BME280;50636;45.596;5.258;2022-10-04T07:46:49;99197.97;;;18.86;60.55
64294;BME280;50636;45.596;5.258;2022-10-04T07:49:19;99197.88;;;19.15;59.62
64294;BME280;50636;45.596;5.258;2022-10-04T07:52:16;99205.59;;;19.16;59.23
64294;BME280;50636;45.596;5.258;2022-10-04T08:00:04;99214.88;;;19.14;57.90
64294;BME280;50636;45.596;5.258;2022-10-04T08:03:05;99223.13;;;18.95;57.90
64294;BME280;50636;45.596;5.258;2022-10-04T08:05:45;99223.56;;;18.75;58.59
64294;BME280;50636;45.596;5.258;2022-10-04T08:19:46;99244.63;;;19.11;58.41
64294;BME280;50636;45.596;5.258;2022-10-04T08:22:33;99248.06;;;19.45;57.83
64294;BME280;50636;45.596;5.258;2022-10-04T08:25:25;99241.34;;;19.77;57.17
64294;BME280;50636;45.596;5.258;2022-10-04T08:53:26;99257.53;;;20.41;55.43
64294;BME280;50636;45.596;5.258;2022-10-04T08:58:34;99264.00;;;21.00;54.25
64294;BME280;50636;45.596;5.258;2022-10-04T09:07:46;99252.88;;;24.63;47.04
64294;BME280;50636;45.596;5.258;2022-10-04T09:10:36;99243.00;;;25.51;45.28
64294;BME280;50636;45.596;5.258;2022-10-04T09:15:54;99238.81;;;26.13;42.54
64294;BME280;50636;45.596;5.258;2022-10-04T09:30:26;99264.47;;;24.48;43.83
64294;BME280;50636;45.596;5.258;2022-10-04T09:36:07;99260.25;;;24.37;44.97
64294;BME280;50636;45.596;5.258;2022-10-04T10:01:12;99253.78;;;27.83;39.26
64294;BME280;50636;45.596;5.258;2022-10-04T10:06:44;99249.16;;;30.26;34.95
64294;BME280;50636;45.596;5.258;2022-10-04T10:09:15;99254.91;;;31.42;32.68
64294;BME280;50636;45.596;5.258;2022-10-04T10:11:51;99253.69;;;31.99;31.85
64294;BME280;50636;45.596;5.258;2022-10-04T10:15:01;99257.97;;;32.72;31.01
64294;BME280;50636;45.596;5.258;2022-10-04T10:25:58;99254.97;;;33.31;28.75
64294;BME280;50636;45.596;5.258;2022-10-04T11:07:47;99237.59;;;34.10;27.64
64294;BME280;50636;45.596;5.258;2022-10-04T11:13:47;99219.13;;;34.03;27.25
64294;BME280;50636;45.596;5.258;2022-10-04T11:27:55;99228.44;;;33.16;28.80
64294;BME280;50636;45.596;5.258;2022-10-04T11:42:56;99204.56;;;32.55;28.93
64294;BME280;50636;45.596;5.258;2022-10-04T11:45:19;99198.84;;;32.69;29.35
64294;BME280;50636;45.596;5.258;2022-10-04T11:57:05;99176.53;;;33.09;29.51
64294;BME280;50636;45.596;5.258;2022-10-04T11:59:58;99173.66;;;32.93;29.27
64294;BME280;50636;45.596;5.258;2022-10-04T12:08:42;99159.72;;;32.28;29.53
64294;BME280;50636;45.596;5.258;2022-10-04T12:16:50;99147.84;;;31.69;29.95
64294;BME280;50636;45.596;5.258;2022-10-04T12:22:37;99134.03;;;30.85;31.57
64294;BME280;50636;45.596;5.258;2022-10-04T12:30:53;99124.28;;;30.19;32.41
64294;BME280;50636;45.596;5.258;2022-10-04T12:33:55;99123.19;;;30.03;33.13
64294;BME280;50636;45.596;5.258;2022-10-04T13:01:05;99078.22;;;30.28;32.07
64294;BME280;50636;45.596;5.258;2022-10-04T13:03:53;99071.44;;;29.87;32.59
64294;BME280;50636;45.596;5.258;2022-10-04T13:11:56;99065.22;;;29.86;33.20
64294;BME280;50636;45.596;5.258;2022-10-04T13:14:45;99049.56;;;30.27;33.46
64294;BME280;50636;45.596;5.258;2022-10-04T13:20:17;99055.13;;;30.39;32.20
64294;BME280;50636;45.596;5.258;2022-10-04T13:23:02;99052.47;;;30.04;32.54
64294;BME280;50636;45.596;5.258;2022-10-04T13:31:07;99051.81;;;30.16;32.53
64294;BME280;50636;45.596;5.258;2022-10-04T13:39:03;99039.13;;;29.73;31.51
64294;BME280;50636;45.596;5.258;2022-10-04T13:52:37;99041.72;;;27.87;34.03
64294;BME280;50636;45.596;5.258;2022-10-04T13:59:08;99040.88;;;27.64;34.44
64294;BME280;50636;45.596;5.258;2022-10-04T14:10:26;99047.75;;;27.70;33.70
64294;BME280;50636;45.596;5.258;2022-10-04T14:53:22;99043.97;;;27.71;39.03
64294;BME280;50636;45.596;5.258;2022-10-04T14:57:00;99052.41;;;27.42;40.21
64294;BME280;50636;45.596;5.258;2022-10-04T15:02:03;99054.16;;;26.82;41.64
64294;BME280;50636;45.596;5.258;2022-10-04T15:07:33;99054.16;;;26.49;42.61
64294;BME280;50636;45.596;5.258;2022-10-04T15:13:20;99053.88;;;26.51;42.27
64294;BME280;50636;45.596;5.258;2022-10-04T15:16:06;99059.00;;;26.34;42.96
64294;BME280;50636;45.596;5.258;2022-10-04T15:21:31;99055.09;;;25.74;44.48
64294;BME280;50636;45.596;5.258;2022-10-04T15:27:44;99059.66;;;25.55;44.59
64294;BME280;50636;45.596;5.258;2022-10-04T15:30:08;99055.81;;;25.18;45.94
64294;BME280;50636;45.596;5.258;2022-10-04T15:35:48;99064.06;;;25.26;46.02
64294;BME280;50636;45.596;5.258;2022-10-04T15:38:34;99057.25;;;25.34;45.85
64294;BME280;50636;45.596;5.258;2022-10-04T15:41:28;99054.28;;;25.36;45.88
64294;BME280;50636;45.596;5.258;2022-10-04T16:06:22;99054.09;;;24.79;47.57
64294;BME280;50636;45.596;5.258;2022-10-04T16:11:57;99061.22;;;24.64;47.78
64294;BME280;50636;45.596;5.258;2022-10-04T16:14:47;99058.75;;;24.73;47.50
64294;BME280;50636;45.596;5.258;2022-10-04T16:29:32;99058.53;;;24.35;48.82
64294;BME280;50636;45.596;5.258;2022-10-04T16:34:45;99058.31;;;23.92;49.82
64294;BME280;50636;45.596;5.258;2022-10-04T16:40:31;99064.97;;;23.50;50.94
64294;BME280;50636;45.596;5.258;2022-10-04T16:45:41;99064.28;;;23.29;51.78
64294;BME280;50636;45.596;5.258;2022-10-04T16:48:31;99059.50;;;23.16;52.19
64294;BME280;50636;45.596;5.258;2022-10-04T16:56:31;99072.16;;;22.94;52.81
64294;BME280;50636;45.596;5.258;2022-10-04T16:59:10;99080.72;;;22.97;53.26
64294;BME280;50636;45.596;5.258;2022-10-04T17:20:24;99113.34;;;21.96;56.95
64294;BME280;50636;45.596;5.258;2022-10-04T17:23:18;99113.56;;;21.79;57.51
64294;BME280;50636;45.596;5.258;2022-10-04T17:29:15;99125.06;;;21.80;57.38
64294;BME280;50636;45.596;5.258;2022-10-04T17:32:02;99130.94;;;21.71;57.71
64294;BME280;50636;45.596;5.258;2022-10-04T17:37:48;99133.66;;;21.29;58.46
64294;BME280;50636;45.596;5.258;2022-10-04T17:48:27;99152.75;;;20.68;60.75
64294;BME280;50636;45.596;5.258;2022-10-04T17:51:32;99161.59;;;20.73;61.34
64294;BME280;50636;45.596;5.258;2022-10-04T17:54:23;99166.09;;;21.05;60.74
64294;BME280;50636;45.596;5.258;2022-10-04T17:59:53;99167.94;;;20.67;60.18
64294;BME280;50636;45.596;5.258;2022-10-04T18:07:58;99175.91;;;19.86;62.03
64294;BME280;50636;45.596;5.258;2022-10-04T18:10:26;99168.13;;;19.79;62.59
64294;BME280;50636;45.596;5.258;2022-10-04T18:13:09;99167.09;;;19.80;62.98
64294;BME280;50636;45.596;5.258;2022-10-04T18:15:47;99170.75;;;19.74;63.18
64294;BME280;50636;45.596;5.258;2022-10-04T18:18:18;99167.53;;;19.72;63.08
64294;BME280;50636;45.596;5.258;2022-10-04T18:21:19;99172.25;;;19.70;63.68
64294;BME280;50636;45.596;5.258;2022-10-04T18:23:55;99174.59;;;19.66;63.67
64294;BME280;50636;45.596;5.258;2022-10-04T18:26:23;99181.09;;;19.53;63.75
64294;BME280;50636;45.596;5.258;2022-10-04T18:28:51;99172.59;;;19.34;64.49
64294;BME280;50636;45.596;5.258;2022-10-04T18:31:30;99174.97;;;19.14;65.52
64294;BME280;50636;45.596;5.258;2022-10-04T18:36:52;99183.19;;;18.62;67.70
64294;BME280;50636;45.596;5.258;2022-10-04T18:39:22;99183.88;;;18.57;68.14
64294;BME280;50636;45.596;5.258;2022-10-04T18:42:27;99181.22;;;18.57;68.35
64294;BME280;50636;45.596;5.258;2022-10-04T18:45:00;99183.88;;;18.40;68.81
64294;BME280;50636;45.596;5.258;2022-10-04T18:47:32;99184.31;;;18.20;69.91
64294;BME280;50636;45.596;5.258;2022-10-04T18:50:07;99183.22;;;18.04;70.29
64294;BME280;50636;45.596;5.258;2022-10-04T18:52:53;99183.13;;;17.99;70.61
64294;BME280;50636;45.596;5.258;2022-10-04T19:07:05;99185.63;;;17.65;72.28
64294;BME280;50636;45.596;5.258;2022-10-04T19:12:15;99193.22;;;17.85;72.17
64294;BME280;50636;45.596;5.258;2022-10-04T19:25:35;99199.53;;;18.25;71.04
64294;BME280;50636;45.596;5.258;2022-10-04T19:28:19;99201.44;;;18.41;70.24
64294;BME280;50636;45.596;5.258;2022-10-04T19:33:17;99203.44;;;18.34;69.86
64294;BME280;50636;45.596;5.258;2022-10-04T19:40:46;99195.06;;;18.42;68.79
64294;BME280;50636;45.596;5.258;2022-10-04T19:43:22;99208.94;;;18.15;69.05
64294;BME280;50636;45.596;5.258;2022-10-04T19:46:33;99221.16;;;17.64;70.39
64294;BME280;50636;45.596;5.258;2022-10-04T19:49:02;99233.97;;;17.32;70.79
64294;BME280;50636;45.596;5.258;2022-10-04T19:51:48;99233.28;;;17.13;72.39
64294;BME280;50636;45.596;5.258;2022-10-04T19:54:22;99240.91;;;17.21;72.44
64294;BME280;50636;45.596;5.258;2022-10-04T19:56:49;99247.72;;;17.29;72.54
64294;BME280;50636;45.596;5.258;2022-10-04T19:59:27;99247.38;;;17.49;72.41
64294;BME280;50636;45.596;5.258;2022-10-04T20:01:55;99248.63;;;17.70;72.36
64294;BME280;50636;45.596;5.258;2022-10-04T20:04:21;99250.56;;;17.86;71.37
64294;BME280;50636;45.596;5.258;2022-10-04T20:07:01;99258.09;;;17.89;70.88
64294;BME280;50636;45.596;5.258;2022-10-04T20:12:38;99264.91;;;17.85;69.75
64294;BME280;50636;45.596;5.258;2022-10-04T20:17:44;99272.28;;;17.48;70.08
64294;BME280;50636;45.596;5.258;2022-10-04T20:23:05;99282.84;;;17.01;71.49
64294;BME280;50636;45.596;5.258;2022-10-04T20:30:52;99291.25;;;16.37;73.26
64294;BME280;50636;45.596;5.258;2022-10-04T20:36:11;99289.41;;;16.68;74.07
64294;BME280;50636;45.596;5.258;2022-10-04T20:39:00;99288.66;;;17.21;73.32
64294;BME280;50636;45.596;5.258;2022-10-04T20:49:54;99297.56;;;17.86;68.43
64294;BME280;50636;45.596;5.258;2022-10-04T20:52:29;99302.28;;;17.60;68.51
64294;BME280;50636;45.596;5.258;2022-10-04T20:54:57;99305.16;;;17.35;68.61
64294;BME280;50636;45.596;5.258;2022-10-04T20:57:26;99307.22;;;17.21;69.43
64294;BME280;50636;45.596;5.258;2022-10-04T20:59:55;99305.00;;;17.18;69.59
64294;BME280;50636;45.596;5.258;2022-10-04T21:02:23;99303.75;;;17.09;69.17
64294;BME280;50636;45.596;5.258;2022-10-04T21:04:51;99309.56;;;16.87;69.36
64294;BME280;50636;45.596;5.258;2022-10-04T21:07:23;99307.13;;;16.86;70.58
64294;BME280;50636;45.596;5.258;2022-10-04T21:09:49;99311.53;;;16.92;70.25
64294;BME280;50636;45.596;5.258;2022-10-04T21:12:44;99315.81;;;16.93;69.90
64294;BME280;50636;45.596;5.258;2022-10-04T21:18:06;99315.16;;;16.79;70.01
64294;BME280;50636;45.596;5.258;2022-10-04T21:23:11;99317.09;;;17.02;69.87
64294;BME280;50636;45.596;5.258;2022-10-04T21:25:41;99318.97;;;17.13;69.31
64294;BME280;50636;45.596;5.258;2022-10-04T21:28:33;99321.50;;;17.20;68.66
64294;BME280;50636;45.596;5.258;2022-10-04T21:31:00;99330.63;;;17.24;68.14
64294;BME280;50636;45.596;5.258;2022-10-04T21:33:26;99336.50;;;17.14;67.87
64294;BME280;50636;45.596;5.258;2022-10-04T21:35:51;99346.19;;;17.09;68.37
64294;BME280;50636;45.596;5.258;2022-10-04T21:38:18;99347.38;;;17.25;68.37
64294;BME280;50636;45.596;5.258;2022-10-04T21:40:43;99352.75;;;17.18;68.42
64294;BME280;50636;45.596;5.258;2022-10-04T21:43:09;99349.03;;;17.07;68.29
64294;BME280;50636;45.596;5.258;2022-10-04T21:45:35;99347.75;;;16.98;68.20
64294;BME280;50636;45.596;5.258;2022-10-04T21:48:00;99358.97;;;16.82;68.69
64294;BME280;50636;45.596;5.258;2022-10-04T21:50:26;99355.81;;;16.73;69.16
64294;BME280;50636;45.596;5.258;2022-10-04T21:52:52;99361.00;;;16.80;69.26
64294;BME280;50636;45.596;5.258;2022-10-04T21:55:17;99355.59;;;16.74;68.95
64294;BME280;50636;45.596;5.258;2022-10-04T21:57:43;99352.56;;;16.71;69.19
64294;BME280;50636;45.596;5.258;2022-10-04T22:00:09;99351.41;;;16.67;69.14
64294;BME280;50636;45.596;5.258;2022-10-04T22:02:35;99354.75;;;16.74;69.67
64294;BME280;50636;45.596;5.258;2022-10-04T22:05:01;99353.16;;;16.91;69.51
64294;BME280;50636;45.596;5.258;2022-10-04T22:07:26;99350.09;;;17.18;69.05
64294;BME280;50636;45.596;5.258;2022-10-04T22:09:52;99344.06;;;17.53;68.37
64294;BME280;50636;45.596;5.258;2022-10-04T22:12:18;99338.53;;;17.66;67.22
64294;BME280;50636;45.596;5.258;2022-10-04T22:14:43;99345.69;;;17.66;66.70
64294;BME280;50636;45.596;5.258;2022-10-04T22:17:09;99345.66;;;17.54;66.64
64294;BME280;50636;45.596;5.258;2022-10-04T22:19:34;99340.13;;;17.44;66.50
64294;BME280;50636;45.596;5.258;2022-10-04T22:22:00;99344.22;;;17.16;66.40
64294;BME280;50636;45.596;5.258;2022-10-04T22:24:26;99340.00;;;16.85;66.35
64294;BME280;50636;45.596;5.258;2022-10-04T22:26:51;99341.13;;;16.40;67.65
64294;BME280;50636;45.596;5.258;2022-10-04T22:29:17;99338.16;;;15.93;68.62
64294;BME280;50636;45.596;5.258;2022-10-04T22:31:50;99327.78;;;15.48;70.11
64294;BME280;50636;45.596;5.258;2022-10-04T22:34:18;99333.22;;;15.28;71.14
64294;BME280;50636;45.596;5.258;2022-10-04T22:36:46;99325.31;;;15.21;71.94
64294;BME280;50636;45.596;5.258;2022-10-04T22:39:14;99325.09;;;15.23;71.98
64294;BME280;50636;45.596;5.258;2022-10-04T22:41:46;99318.63;;;15.18;71.99
64294;BME280;50636;45.596;5.258;2022-10-04T22:46:41;99319.22;;;15.21;72.61
64294;BME280;50636;45.596;5.258;2022-10-04T22:49:13;99332.56;;;15.01;72.65
64294;BME280;50636;45.596;5.258;2022-10-04T22:51:41;99336.63;;;14.71;73.67
64294;BME280;50636;45.596;5.258;2022-10-04T22:54:13;99339.50;;;14.50;74.38
64294;BME280;50636;45.596;5.258;2022-10-04T22:56:40;99337.97;;;14.29;75.47
64294;BME280;50636;45.596;5.258;2022-10-04T22:59:08;99331.88;;;14.28;76.01
64294;BME280;50636;45.596;5.258;2022-10-04T23:01:35;99335.28;;;14.42;75.58
64294;BME280;50636;45.596;5.258;2022-10-04T23:04:01;99329.22;;;14.35;75.55
64294;BME280;50636;45.596;5.258;2022-10-04T23:06:26;99331.66;;;14.30;76.11
64294;BME280;50636;45.596;5.258;2022-10-04T23:08:52;99333.91;;;14.33;76.72
64294;BME280;50636;45.596;5.258;2022-10-04T23:11:17;99325.59;;;14.29;77.34
64294;BME280;50636;45.596;5.258;2022-10-04T23:13:43;99315.47;;;14.19;77.93
64294;BME280;50636;45.596;5.258;2022-10-04T23:16:13;99322.81;;;14.04;78.44
64294;BME280;50636;45.596;5.258;2022-10-04T23:18:40;99312.69;;;13.88;79.20